Forside
METAR-TAF:

METAR-TAF

Lufthavne :

Marshalltown Municipal Airport

Marshalltown, Iowa, USA

Breddekreds: 42-06-38N, længdekreds: 092-54-58W, højde: 296 m

Aktuelle vejr

Denne rapport blev lavet for 23 minutter siden, kl. 08:53 UTC
Vind 3 kt fra nordnordvest
Temperatur -8°C
Fugtighed 100%
Tryk 1016 hPa
Sigt: 8.0 km
Overskyet i en højde af 600 ft
dis

METAR: KMIW 130853Z AUTO 34003KT 5SM BR OVC006 M08/M08 A2999 RMK AO2 SLP168 T10781083 56011 $

Tid: 03:16 (09:16 UTC)


TAF: fraværende

Vejrobservationer og prognoser fra mere end 4000 lufthavne (METAR og TAF).

De gule og røde prikker repræsenterer de meteorologiske stationer.

Flyt musen over at se navnet på stationen.

Så klik over at se vejr observationer og prognoser.

At skifte det kort: Klik på de grønne knapper med et sort kors for at zoome ind; på den grønne knap med en bindestreg for at zoome ud; eller på de grønne pile for tilstødende kort.


METAR-TAF: